createdAt,value
2017-11-30T00:00:18.602Z,44.80
2017-11-30T00:01:18.617Z,46.30
2017-11-30T00:02:18.633Z,44.50
2017-11-30T00:03:18.647Z,43.90
2017-11-30T00:04:18.665Z,43.50
2017-11-30T00:05:18.679Z,46.40
2017-11-30T00:06:18.696Z,44.00
2017-11-30T00:07:18.713Z,44.20
2017-11-30T00:08:18.725Z,44.20
2017-11-30T00:09:18.742Z,43.70
2017-11-30T00:10:18.760Z,46.70
2017-11-30T00:11:18.772Z,46.10
2017-11-30T00:12:18.794Z,45.60
2017-11-30T00:13:18.802Z,44.30
2017-11-30T00:14:18.818Z,44.70
2017-11-30T00:15:18.833Z,45.90
2017-11-30T00:16:18.849Z,44.70
2017-11-30T00:17:18.863Z,44.20
2017-11-30T00:18:18.881Z,46.20
2017-11-30T00:19:18.896Z,44.70
2017-11-30T00:20:18.913Z,45.50
2017-11-30T00:21:18.927Z,46.20
2017-11-30T00:22:18.942Z,45.50
2017-11-30T00:23:18.958Z,45.70
2017-11-30T00:24:18.972Z,44.60
2017-11-30T00:25:18.988Z,44.60
2017-11-30T00:26:19.004Z,44.60
2017-11-30T00:27:19.018Z,42.60
2017-11-30T00:28:19.035Z,44.60
2017-11-30T00:29:19.050Z,46.00
2017-11-30T00:30:19.065Z,44.60
2017-11-30T00:31:19.081Z,44.30
2017-11-30T00:32:19.096Z,45.90
2017-11-30T00:33:19.110Z,44.60
2017-11-30T00:34:19.127Z,45.60
2017-11-30T00:35:19.143Z,44.50
2017-11-30T00:36:19.158Z,46.90
2017-11-30T00:37:19.172Z,46.40
2017-11-30T00:38:19.188Z,45.40
2017-11-30T00:39:19.203Z,43.70
2017-11-30T00:40:19.220Z,45.60
2017-11-30T00:41:19.234Z,46.60
2017-11-30T00:42:19.250Z,46.40
2017-11-30T00:43:19.264Z,44.90
2017-11-30T00:44:19.281Z,46.00
2017-11-30T00:45:19.295Z,46.00
2017-11-30T00:46:19.314Z,46.70
2017-11-30T00:47:19.326Z,46.00
2017-11-30T00:48:19.343Z,45.10
2017-11-30T00:49:19.355Z,45.90
2017-11-30T00:50:19.390Z,47.00
2017-11-30T00:51:19.387Z,45.40
2017-11-30T00:52:19.404Z,44.60
2017-11-30T00:53:19.416Z,43.50
2017-11-30T00:54:19.433Z,45.10
2017-11-30T00:55:19.448Z,47.50
2017-11-30T00:56:19.472Z,46.80
2017-11-30T00:57:19.479Z,46.30
2017-11-30T00:58:19.494Z,44.20
2017-11-30T00:59:19.509Z,44.90
2017-11-30T01:00:19.625Z,43.80
2017-11-30T01:01:19.540Z,45.10
2017-11-30T01:02:19.556Z,47.00
2017-11-30T01:03:19.572Z,43.40
2017-11-30T01:04:19.585Z,45.20
2017-11-30T01:05:19.602Z,45.50
2017-11-30T01:06:19.616Z,44.00
2017-11-30T01:07:19.634Z,46.00
2017-11-30T01:08:19.647Z,44.30
2017-11-30T01:09:19.662Z,43.90
2017-11-30T01:10:19.677Z,43.00
2017-11-30T01:11:19.693Z,44.50
2017-11-30T01:12:19.708Z,44.90
2017-11-30T01:13:19.726Z,44.40
2017-11-30T01:14:19.739Z,44.00
2017-11-30T01:15:19.755Z,43.10
2017-11-30T01:16:19.772Z,45.50
2017-11-30T01:17:19.783Z,46.70
2017-11-30T01:18:19.800Z,44.10
2017-11-30T01:19:19.816Z,45.90
2017-11-30T01:20:19.831Z,45.00
2017-11-30T01:21:19.845Z,43.90
2017-11-30T01:22:19.862Z,44.50
2017-11-30T01:23:19.877Z,44.60
2017-11-30T01:24:19.893Z,45.60
2017-11-30T01:25:19.908Z,46.60
2017-11-30T01:26:19.925Z,45.60
2017-11-30T01:27:19.937Z,43.90
2017-11-30T01:28:19.953Z,43.00
2017-11-30T01:29:19.968Z,45.20
2017-11-30T01:30:19.985Z,46.00
2017-11-30T01:31:20.000Z,44.50
2017-11-30T01:32:20.018Z,43.90
2017-11-30T01:33:20.030Z,45.30
2017-11-30T01:34:20.046Z,47.60
2017-11-30T01:35:20.061Z,45.60
2017-11-30T01:36:20.076Z,43.20
2017-11-30T01:37:20.092Z,44.40
2017-11-30T01:38:20.109Z,45.70
2017-11-30T01:39:20.122Z,42.50
2017-11-30T01:40:20.139Z,44.80
2017-11-30T01:41:20.153Z,44.80
2017-11-30T01:42:20.168Z,45.70
2017-11-30T01:43:20.185Z,43.60
2017-11-30T01:44:20.200Z,44.00
2017-11-30T01:45:20.216Z,45.40
2017-11-30T01:46:20.232Z,44.00
2017-11-30T01:47:20.249Z,43.50
2017-11-30T01:48:20.265Z,43.80
2017-11-30T01:49:20.279Z,44.20
2017-11-30T01:50:20.293Z,42.70
2017-11-30T01:51:20.309Z,43.10
2017-11-30T01:52:20.323Z,43.40
2017-11-30T01:53:20.339Z,43.00
2017-11-30T01:54:20.355Z,44.20
2017-11-30T01:55:20.370Z,43.90
2017-11-30T01:56:20.385Z,43.70
2017-11-30T01:57:20.400Z,45.00
2017-11-30T01:58:20.423Z,45.80
2017-11-30T01:59:20.431Z,44.50
2017-11-30T02:00:20.448Z,44.30
2017-11-30T02:01:20.461Z,45.50
2017-11-30T02:02:20.479Z,45.40
2017-11-30T02:03:20.493Z,43.70
2017-11-30T02:04:20.509Z,42.40
2017-11-30T02:05:20.525Z,46.20
2017-11-30T02:06:20.542Z,43.80
2017-11-30T02:07:20.554Z,42.90
2017-11-30T02:08:20.570Z,44.30
2017-11-30T02:09:20.585Z,42.90
2017-11-30T02:10:20.601Z,45.00
2017-11-30T02:11:20.621Z,43.60
2017-11-30T02:12:20.641Z,44.70
2017-11-30T02:13:20.648Z,41.90
2017-11-30T02:14:20.664Z,43.70
2017-11-30T02:15:20.679Z,44.10
2017-11-30T02:16:20.694Z,44.70
2017-11-30T02:17:20.710Z,43.20
2017-11-30T02:18:20.726Z,43.90
2017-11-30T02:19:20.741Z,43.60
2017-11-30T02:20:20.756Z,45.30
2017-11-30T02:21:20.771Z,42.70
2017-11-30T02:22:20.787Z,44.40
2017-11-30T02:23:20.801Z,45.40
2017-11-30T02:24:20.819Z,44.70
2017-11-30T02:25:20.833Z,44.80
2017-11-30T02:26:20.848Z,45.60
2017-11-30T02:27:20.869Z,44.20
2017-11-30T02:28:20.879Z,44.30
2017-11-30T02:29:20.895Z,44.60
2017-11-30T02:30:20.910Z,43.80
2017-11-30T02:31:20.927Z,45.50
2017-11-30T02:32:20.941Z,44.40
2017-11-30T02:33:20.993Z,44.70
2017-11-30T02:34:20.972Z,43.70
2017-11-30T02:35:20.990Z,43.50
2017-11-30T02:36:21.010Z,44.70
2017-11-30T02:37:21.017Z,44.40
2017-11-30T02:38:21.034Z,42.90
2017-11-30T02:39:21.049Z,45.90
2017-11-30T02:40:21.065Z,44.60
2017-11-30T02:41:21.081Z,42.90
2017-11-30T02:42:21.098Z,42.30
2017-11-30T02:43:21.111Z,44.40
2017-11-30T02:44:21.127Z,44.20
2017-11-30T02:45:21.141Z,45.30
2017-11-30T02:46:21.157Z,43.70
2017-11-30T02:47:21.172Z,44.70
2017-11-30T02:48:21.187Z,44.70
2017-11-30T02:49:21.207Z,44.80
2017-11-30T02:50:21.217Z,45.70
2017-11-30T02:51:21.235Z,44.50
2017-11-30T02:52:21.249Z,43.90
2017-11-30T02:53:21.265Z,44.60
2017-11-30T02:54:21.279Z,44.10
2017-11-30T02:55:21.293Z,44.40
2017-11-30T02:56:21.313Z,42.80
2017-11-30T02:57:21.326Z,45.70
2017-11-30T02:58:21.348Z,44.40
2017-11-30T02:59:21.356Z,43.50
2017-11-30T03:00:21.374Z,44.80
2017-11-30T03:01:21.387Z,45.90
2017-11-30T03:02:21.403Z,46.50
2017-11-30T03:03:21.418Z,46.10
2017-11-30T03:04:21.463Z,47.30
2017-11-30T03:05:21.448Z,47.00
2017-11-30T03:06:21.463Z,48.40
2017-11-30T03:07:21.479Z,45.40
2017-11-30T03:08:21.495Z,42.40
2017-11-30T03:09:21.511Z,45.80
2017-11-30T03:10:21.525Z,46.50
2017-11-30T03:11:21.541Z,45.10
2017-11-30T03:12:21.557Z,46.00
2017-11-30T03:13:21.570Z,47.30
2017-11-30T03:14:21.587Z,47.60
2017-11-30T03:15:21.604Z,45.90
2017-11-30T03:16:21.617Z,45.80
2017-11-30T03:17:21.631Z,45.30
2017-11-30T03:18:21.653Z,43.80
2017-11-30T03:19:21.664Z,45.70
2017-11-30T03:20:21.679Z,48.30
2017-11-30T03:21:21.694Z,47.30
2017-11-30T03:22:21.711Z,46.30
2017-11-30T03:23:21.725Z,48.10
2017-11-30T03:24:21.740Z,48.60
2017-11-30T03:25:21.756Z,47.20
2017-11-30T03:26:21.771Z,46.80
2017-11-30T03:27:21.786Z,49.00
2017-11-30T03:28:21.801Z,47.70
2017-11-30T03:29:21.818Z,49.60
2017-11-30T03:30:21.839Z,48.70
2017-11-30T03:31:21.850Z,48.50
2017-11-30T03:32:21.862Z,49.40
2017-11-30T03:33:21.878Z,47.30
2017-11-30T03:34:21.892Z,47.30
2017-11-30T03:35:21.908Z,46.40
2017-11-30T03:36:21.924Z,50.60
2017-11-30T03:37:21.940Z,51.60
2017-11-30T03:38:21.955Z,51.00
2017-11-30T03:39:21.970Z,50.30
2017-11-30T03:40:21.985Z,50.30
2017-11-30T03:41:21.999Z,50.80
2017-11-30T03:42:22.016Z,51.00
2017-11-30T03:43:22.032Z,50.40
2017-11-30T03:44:22.047Z,50.30
2017-11-30T03:45:22.061Z,50.60
2017-11-30T03:46:22.082Z,51.20
2017-11-30T03:47:22.093Z,51.90
2017-11-30T03:48:22.108Z,54.10
2017-11-30T03:49:22.123Z,55.10
2017-11-30T03:50:22.137Z,55.20
2017-11-30T03:51:22.153Z,57.60
2017-11-30T03:52:22.169Z,54.70
2017-11-30T03:53:22.193Z,52.50
2017-11-30T03:54:22.198Z,56.60
2017-11-30T03:55:22.214Z,56.00
2017-11-30T03:56:22.229Z,57.60
2017-11-30T03:57:22.244Z,56.10
2017-11-30T03:58:22.259Z,55.20
2017-11-30T03:59:22.276Z,54.70
2017-11-30T04:00:22.292Z,54.10
2017-11-30T04:01:22.306Z,56.90
2017-11-30T04:02:22.324Z,56.10
2017-11-30T04:03:22.336Z,57.40
2017-11-30T04:04:22.352Z,57.30
2017-11-30T04:05:22.366Z,54.30
2017-11-30T04:06:22.382Z,56.90
2017-11-30T04:07:22.398Z,59.00
2017-11-30T04:08:22.412Z,55.90
2017-11-30T04:09:22.435Z,56.40
2017-11-30T04:10:22.443Z,55.00
2017-11-30T04:11:22.459Z,56.80
2017-11-30T04:12:22.474Z,56.60
2017-11-30T04:13:22.490Z,55.00
2017-11-30T04:14:22.503Z,54.60
2017-11-30T04:15:22.519Z,57.40
2017-11-30T04:16:22.534Z,57.60
2017-11-30T04:17:22.550Z,56.00
2017-11-30T04:18:22.565Z,55.80
2017-11-30T04:19:22.580Z,53.40
2017-11-30T04:20:22.596Z,55.10
2017-11-30T04:21:22.609Z,57.50
2017-11-30T04:22:22.627Z,55.40
2017-11-30T04:23:22.642Z,56.60
2017-11-30T04:24:22.655Z,56.60
2017-11-30T04:25:22.672Z,52.80
2017-11-30T04:26:22.685Z,55.20
2017-11-30T04:27:22.701Z,55.60
2017-11-30T04:28:22.717Z,57.20
2017-11-30T04:29:22.832Z,55.50
2017-11-30T04:30:22.753Z,54.20
2017-11-30T04:31:22.762Z,53.20
2017-11-30T04:32:22.778Z,54.00
2017-11-30T04:33:22.791Z,53.30
2017-11-30T04:34:22.807Z,54.50
2017-11-30T04:35:22.824Z,52.90
2017-11-30T04:36:22.837Z,53.40
2017-11-30T04:37:22.852Z,54.10
2017-11-30T04:38:22.866Z,53.80
2017-11-30T04:39:22.884Z,53.20
2017-11-30T04:40:22.898Z,52.50
2017-11-30T04:41:22.912Z,52.60
2017-11-30T04:42:22.927Z,52.90
2017-11-30T04:43:22.945Z,52.30
2017-11-30T04:44:22.960Z,50.50
2017-11-30T04:45:22.973Z,52.20
2017-11-30T04:46:22.989Z,55.10
2017-11-30T04:47:23.005Z,55.70
2017-11-30T04:48:23.019Z,52.60
2017-11-30T04:49:23.033Z,52.20
2017-11-30T04:50:23.048Z,54.20
2017-11-30T04:51:23.064Z,55.20
2017-11-30T04:52:23.080Z,52.50
2017-11-30T04:53:23.093Z,53.40
2017-11-30T04:54:23.108Z,52.40
2017-11-30T04:55:23.126Z,53.30
2017-11-30T04:56:23.141Z,52.00
2017-11-30T04:57:23.154Z,51.40
2017-11-30T04:58:23.170Z,53.10
2017-11-30T04:59:23.185Z,51.90
2017-11-30T05:00:23.201Z,51.50
2017-11-30T05:01:23.215Z,52.60
2017-11-30T05:02:23.230Z,50.90
2017-11-30T05:03:23.245Z,51.80
2017-11-30T05:04:23.260Z,53.30
2017-11-30T05:05:23.275Z,52.40
2017-11-30T05:06:23.291Z,56.10
2017-11-30T05:07:23.307Z,52.70
2017-11-30T05:08:23.321Z,56.10
2017-11-30T05:09:23.364Z,57.50
2017-11-30T05:10:23.351Z,55.80
2017-11-30T05:11:23.366Z,56.40
2017-11-30T05:12:23.382Z,59.80
2017-11-30T05:13:23.396Z,57.70
2017-11-30T05:14:23.413Z,56.00
2017-11-30T05:15:23.428Z,58.20
2017-11-30T05:16:23.443Z,59.50
2017-11-30T05:17:23.457Z,61.40
2017-11-30T05:18:23.473Z,63.50
2017-11-30T05:19:23.489Z,59.30
2017-11-30T05:20:23.504Z,57.70
2017-11-30T05:21:23.518Z,58.20
2017-11-30T05:22:23.535Z,58.70
2017-11-30T05:23:23.550Z,58.50
2017-11-30T05:24:23.564Z,55.80
2017-11-30T05:25:23.579Z,58.00
2017-11-30T05:26:23.604Z,56.40
2017-11-30T05:27:23.610Z,58.70
2017-11-30T05:28:23.626Z,62.20
2017-11-30T05:29:23.640Z,59.70
2017-11-30T05:30:23.655Z,59.20
2017-11-30T05:31:23.671Z,59.00
2017-11-30T05:32:23.686Z,57.60
2017-11-30T05:33:23.700Z,56.20
2017-11-30T05:34:23.715Z,57.90
2017-11-30T05:35:23.731Z,59.90
2017-11-30T05:36:23.753Z,59.80
2017-11-30T05:37:23.762Z,58.30
2017-11-30T05:38:23.777Z,58.50
2017-11-30T05:39:23.791Z,57.30
2017-11-30T05:40:23.808Z,60.00
2017-11-30T05:41:23.821Z,59.30
2017-11-30T05:42:23.837Z,54.60
2017-11-30T05:43:23.853Z,57.00
2017-11-30T05:44:23.867Z,56.70
2017-11-30T05:45:23.883Z,55.30
2017-11-30T05:46:23.898Z,58.50
2017-11-30T05:47:23.913Z,57.40
2017-11-30T05:48:23.930Z,58.50
2017-11-30T05:49:23.943Z,58.80
2017-11-30T05:50:23.962Z,55.00
2017-11-30T05:51:23.974Z,59.60
2017-11-30T05:52:23.993Z,59.10
2017-11-30T05:53:24.003Z,59.80
2017-11-30T05:54:24.022Z,59.60
2017-11-30T05:55:24.035Z,60.60
2017-11-30T05:56:24.056Z,57.80
2017-11-30T05:57:24.067Z,60.90
2017-11-30T05:58:24.080Z,56.90
2017-11-30T05:59:24.096Z,59.80
2017-11-30T06:00:24.111Z,60.50
2017-11-30T06:01:24.130Z,59.20
2017-11-30T06:02:24.143Z,60.30
2017-11-30T06:03:24.163Z,59.70
2017-11-30T06:04:24.172Z,58.50
2017-11-30T06:05:24.186Z,61.70
2017-11-30T06:06:24.201Z,60.10
2017-11-30T06:07:24.218Z,60.50
2017-11-30T06:08:24.244Z,63.80
2017-11-30T06:09:24.257Z,61.50
2017-11-30T06:10:24.262Z,65.80
2017-11-30T06:11:24.279Z,64.90
2017-11-30T06:12:24.299Z,64.00
2017-11-30T06:13:24.308Z,63.70
2017-11-30T06:14:24.324Z,63.80
2017-11-30T06:15:24.342Z,61.50
2017-11-30T06:16:24.355Z,61.70
2017-11-30T06:17:24.369Z,64.30
2017-11-30T06:18:24.384Z,63.60
2017-11-30T06:19:24.400Z,61.70
2017-11-30T06:20:24.415Z,60.70
2017-11-30T06:21:24.454Z,60.80
2017-11-30T06:22:24.446Z,63.80
2017-11-30T06:23:24.460Z,65.40
2017-11-30T06:24:24.477Z,66.20
2017-11-30T06:25:24.490Z,63.40
2017-11-30T06:26:24.506Z,64.10
2017-11-30T06:27:24.522Z,63.60
2017-11-30T06:28:24.537Z,63.90
2017-11-30T06:29:24.551Z,62.90
2017-11-30T06:30:24.570Z,61.10
2017-11-30T06:31:24.582Z,60.10
2017-11-30T06:32:24.598Z,62.90
2017-11-30T06:33:24.611Z,63.10
2017-11-30T06:34:24.627Z,65.90
2017-11-30T06:35:24.642Z,64.60
2017-11-30T06:36:24.658Z,66.10
2017-11-30T06:37:24.674Z,67.10
2017-11-30T06:38:24.687Z,67.10
2017-11-30T06:39:24.702Z,67.50
2017-11-30T06:40:24.719Z,68.10
2017-11-30T06:41:24.733Z,68.80
2017-11-30T06:42:24.748Z,66.40
2017-11-30T06:43:24.764Z,66.30
2017-11-30T06:44:24.806Z,69.00
2017-11-30T06:45:24.794Z,68.00
2017-11-30T06:46:24.818Z,68.10
2017-11-30T06:47:24.825Z,68.60
2017-11-30T06:48:24.841Z,70.70
2017-11-30T06:49:24.855Z,71.70
2017-11-30T06:50:24.873Z,72.90
2017-11-30T06:51:24.886Z,70.70
2017-11-30T06:52:24.906Z,69.90
2017-11-30T06:53:24.916Z,70.90
2017-11-30T06:54:24.930Z,68.30
2017-11-30T06:55:24.946Z,67.50
2017-11-30T06:56:24.964Z,65.40
2017-11-30T06:57:24.976Z,66.00
2017-11-30T06:58:24.992Z,65.00
2017-11-30T06:59:25.007Z,63.00
2017-11-30T07:00:25.022Z,68.80
2017-11-30T07:01:25.037Z,68.70
2017-11-30T07:02:25.053Z,64.20
2017-11-30T07:03:25.068Z,69.40
2017-11-30T07:04:25.085Z,65.50
2017-11-30T07:05:25.098Z,65.10
2017-11-30T07:06:25.114Z,64.40
2017-11-30T07:07:25.128Z,65.80
2017-11-30T07:08:25.143Z,69.30
2017-11-30T07:09:25.162Z,68.90
2017-11-30T07:10:25.178Z,72.00
2017-11-30T07:11:25.189Z,69.20
2017-11-30T07:12:25.209Z,69.40
2017-11-30T07:13:25.219Z,70.40
2017-11-30T07:14:25.236Z,72.30
2017-11-30T07:15:25.250Z,77.50
2017-11-30T07:16:25.267Z,72.50
2017-11-30T07:17:25.280Z,75.30
2017-11-30T07:18:25.300Z,76.70
2017-11-30T07:19:25.311Z,72.90
2017-11-30T07:20:25.328Z,75.20
2017-11-30T07:21:25.342Z,73.90
2017-11-30T07:22:25.359Z,72.30
2017-11-30T07:23:25.371Z,69.70
2017-11-30T07:24:25.392Z,72.60
2017-11-30T07:25:25.401Z,75.00
2017-11-30T07:26:25.418Z,75.20
2017-11-30T07:27:25.444Z,80.10
2017-11-30T07:28:25.449Z,79.10
2017-11-30T07:29:25.462Z,79.70
2017-11-30T07:30:25.529Z,75.70
2017-11-30T07:31:25.494Z,74.90
2017-11-30T07:32:25.511Z,81.80
2017-11-30T07:33:25.525Z,75.70
2017-11-30T07:34:25.540Z,82.00
2017-11-30T07:35:25.556Z,78.40
2017-11-30T07:36:25.571Z,82.30
2017-11-30T07:37:25.587Z,73.00
2017-11-30T07:38:25.602Z,79.70
2017-11-30T07:39:25.618Z,86.50
2017-11-30T07:40:25.636Z,83.50
2017-11-30T07:41:25.647Z,85.50
2017-11-30T07:42:25.663Z,86.00
2017-11-30T07:43:25.678Z,85.40
2017-11-30T07:44:25.696Z,95.20
2017-11-30T07:45:25.708Z,92.70
2017-11-30T07:46:25.723Z,86.30
2017-11-30T07:47:25.739Z,89.90
2017-11-30T07:48:25.767Z,90.30
2017-11-30T07:49:25.769Z,96.20
2017-11-30T07:50:25.785Z,98.50
2017-11-30T07:51:25.805Z,79.70
2017-11-30T07:52:25.816Z,75.20
2017-11-30T07:53:25.829Z,79.10
2017-11-30T07:54:25.859Z,85.30
2017-11-30T07:55:25.868Z,82.40
2017-11-30T07:56:25.877Z,88.90
2017-11-30T07:57:25.891Z,87.60
2017-11-30T07:58:25.910Z,85.10
2017-11-30T07:59:25.924Z,84.90
2017-11-30T08:00:25.941Z,80.60
2017-11-30T08:01:25.954Z,82.20
2017-11-30T08:02:25.969Z,83.20
2017-11-30T08:03:25.985Z,87.40
2017-11-30T08:04:26.001Z,88.30
2017-11-30T08:05:26.015Z,87.00
2017-11-30T08:06:26.031Z,80.00
2017-11-30T08:07:26.047Z,79.10
2017-11-30T08:08:26.062Z,81.80
2017-11-30T08:09:26.077Z,72.90
2017-11-30T08:10:26.092Z,73.00
2017-11-30T08:11:26.111Z,80.70
2017-11-30T08:12:26.123Z,80.10
2017-11-30T08:13:26.137Z,79.80
2017-11-30T08:14:26.171Z,84.20
2017-11-30T08:15:26.171Z,79.90
2017-11-30T08:16:26.186Z,78.70
2017-11-30T08:17:26.199Z,81.40
2017-11-30T08:18:26.219Z,76.40
2017-11-30T08:19:26.232Z,76.40
2017-11-30T08:20:26.247Z,78.10
2017-11-30T08:21:26.262Z,76.20
2017-11-30T08:22:26.278Z,76.50
2017-11-30T08:23:26.294Z,70.50
2017-11-30T08:24:26.310Z,74.30
2017-11-30T08:25:26.323Z,77.00
2017-11-30T08:26:26.340Z,72.60
2017-11-30T08:27:26.356Z,68.90
2017-11-30T08:28:26.371Z,73.10
2017-11-30T08:29:26.386Z,76.50
2017-11-30T08:30:26.401Z,75.80
2017-11-30T08:31:26.418Z,73.50
2017-11-30T08:32:26.433Z,72.90
2017-11-30T08:33:26.449Z,74.60
2017-11-30T08:34:26.464Z,66.30
2017-11-30T08:35:26.480Z,66.70
2017-11-30T08:36:26.496Z,68.70
2017-11-30T08:37:26.511Z,63.80
2017-11-30T08:38:26.749Z,67.20
2017-11-30T08:39:26.545Z,63.00
2017-11-30T08:40:26.559Z,58.50
2017-11-30T08:41:26.577Z,57.90
2017-11-30T08:42:26.653Z,61.00
2017-11-30T08:43:26.609Z,63.90
2017-11-30T08:44:26.621Z,62.40
2017-11-30T08:45:26.635Z,60.70
2017-11-30T08:46:26.651Z,57.60
2017-11-30T08:47:26.667Z,55.90
2017-11-30T08:48:26.688Z,61.50
2017-11-30T08:49:26.697Z,56.50
2017-11-30T08:50:26.713Z,56.80
2017-11-30T08:51:26.733Z,58.30
2017-11-30T08:52:26.796Z,57.00
2017-11-30T08:53:26.767Z,59.80
2017-11-30T08:54:26.776Z,58.00
2017-11-30T08:55:26.792Z,56.20
2017-11-30T08:56:26.807Z,58.30
2017-11-30T08:57:26.823Z,55.90
2017-11-30T08:58:26.839Z,58.10
2017-11-30T08:59:26.856Z,59.00
2017-11-30T09:00:26.869Z,60.10
2017-11-30T09:01:27.087Z,59.40
2017-11-30T09:02:26.902Z,60.10
2017-11-30T09:03:26.979Z,55.30
2017-11-30T09:04:26.934Z,55.80
2017-11-30T09:05:26.954Z,56.80
2017-11-30T09:06:26.965Z,56.30
2017-11-30T09:07:26.982Z,58.00
2017-11-30T09:08:26.997Z,61.60
2017-11-30T09:09:27.012Z,55.30
2017-11-30T09:10:27.027Z,56.30
2017-11-30T09:11:27.245Z,55.40
2017-11-30T09:12:27.061Z,57.90
2017-11-30T09:13:27.075Z,54.00
2017-11-30T09:14:27.091Z,51.70
2017-11-30T09:15:27.108Z,55.30
2017-11-30T09:16:27.195Z,52.30
2017-11-30T09:17:27.140Z,52.60
2017-11-30T09:18:27.157Z,52.20
2017-11-30T09:19:27.172Z,52.00
2017-11-30T09:20:27.188Z,48.40
2017-11-30T09:21:27.203Z,49.50
2017-11-30T09:22:27.219Z,50.40
2017-11-30T09:23:27.235Z,49.50
2017-11-30T09:24:27.252Z,52.20
2017-11-30T09:25:27.266Z,50.70
2017-11-30T09:26:27.284Z,49.30
2017-11-30T09:27:27.300Z,50.60
2017-11-30T09:28:27.315Z,50.10
2017-11-30T09:29:27.331Z,48.70
2017-11-30T09:30:27.346Z,49.40
2017-11-30T09:31:27.363Z,55.40
2017-11-30T09:32:27.379Z,48.10
2017-11-30T09:33:27.395Z,47.30
2017-11-30T09:34:27.411Z,47.00
2017-11-30T09:35:27.427Z,49.80
2017-11-30T09:36:27.443Z,49.70
2017-11-30T09:37:27.459Z,48.70
2017-11-30T09:38:27.473Z,47.70
2017-11-30T09:39:27.490Z,46.50
2017-11-30T09:40:27.508Z,48.00
2017-11-30T09:41:27.522Z,46.30
2017-11-30T09:42:27.537Z,44.70
2017-11-30T09:43:27.555Z,45.20
2017-11-30T09:44:27.570Z,44.30
2017-11-30T09:45:27.587Z,43.40
2017-11-30T09:46:27.605Z,43.80
2017-11-30T09:47:27.620Z,42.60
2017-11-30T09:48:27.635Z,43.50
2017-11-30T09:49:27.650Z,40.00
2017-11-30T09:50:27.669Z,40.30
2017-11-30T09:51:27.683Z,38.40
2017-11-30T09:52:27.699Z,39.00
2017-11-30T09:53:27.714Z,40.60
2017-11-30T09:54:27.729Z,38.70
2017-11-30T09:55:27.747Z,38.60
2017-11-30T09:56:27.814Z,37.20
2017-11-30T09:57:27.779Z,37.40
2017-11-30T09:58:27.796Z,35.50
2017-11-30T09:59:27.811Z,37.00
2017-11-30T10:00:27.829Z,38.80
2017-11-30T10:01:27.843Z,36.70
2017-11-30T10:02:27.866Z,38.10
2017-11-30T10:03:27.876Z,36.90
2017-11-30T10:04:27.892Z,38.10
2017-11-30T10:05:27.909Z,36.60
2017-11-30T10:06:27.932Z,38.00
2017-11-30T10:07:27.945Z,37.50
2017-11-30T10:08:27.959Z,36.20
2017-11-30T10:09:27.971Z,38.10
2017-11-30T10:10:27.988Z,38.10
2017-11-30T10:11:28.004Z,39.70
2017-11-30T10:12:28.021Z,37.50
2017-11-30T10:13:28.037Z,40.40
2017-11-30T10:14:28.052Z,38.50
2017-11-30T10:15:28.067Z,36.90
2017-11-30T10:16:28.085Z,38.30
2017-11-30T10:17:28.103Z,37.00
2017-11-30T10:18:28.117Z,39.70
2017-11-30T10:19:28.133Z,39.60
2017-11-30T10:20:28.149Z,40.00
2017-11-30T10:21:28.165Z,41.30
2017-11-30T10:22:28.182Z,38.70
2017-11-30T10:23:28.197Z,41.20
2017-11-30T10:24:28.213Z,42.30
2017-11-30T10:25:28.379Z,41.40
2017-11-30T10:26:28.245Z,39.70
2017-11-30T10:27:28.262Z,42.30
2017-11-30T10:28:28.279Z,42.30
2017-11-30T10:29:28.294Z,42.40
2017-11-30T10:30:28.310Z,40.10
2017-11-30T10:31:28.327Z,43.30
2017-11-30T10:32:28.342Z,41.20
2017-11-30T10:33:28.359Z,43.40
2017-11-30T10:34:28.374Z,43.70
2017-11-30T10:35:28.391Z,42.50
2017-11-30T10:36:28.420Z,46.50
2017-11-30T10:37:28.421Z,45.10
2017-11-30T10:38:28.438Z,44.00
2017-11-30T10:39:28.455Z,42.90
2017-11-30T10:40:28.472Z,43.90
2017-11-30T10:41:28.489Z,45.00
2017-11-30T10:42:28.503Z,45.30
2017-11-30T10:43:28.520Z,42.40
2017-11-30T10:44:28.536Z,44.80
2017-11-30T10:45:28.551Z,42.30
2017-11-30T10:46:28.570Z,43.30
2017-11-30T10:47:28.584Z,44.40
2017-11-30T10:48:28.601Z,43.80
2017-11-30T10:49:28.615Z,44.00
2017-11-30T10:50:28.634Z,42.50
2017-11-30T10:51:28.650Z,44.70
2017-11-30T10:52:28.667Z,44.30
2017-11-30T10:53:28.682Z,45.50
2017-11-30T10:54:28.698Z,45.30
2017-11-30T10:55:28.714Z,43.00
2017-11-30T10:56:28.745Z,43.10
2017-11-30T10:57:28.748Z,42.20
2017-11-30T10:58:28.933Z,41.80
2017-11-30T10:59:28.809Z,40.30
2017-11-30T11:00:28.797Z,43.50
2017-11-30T11:01:28.814Z,41.80
2017-11-30T11:02:28.831Z,42.40
2017-11-30T11:03:28.846Z,41.40
2017-11-30T11:04:28.865Z,43.20
2017-11-30T11:05:29.278Z,40.90
2017-11-30T11:06:28.905Z,41.90
2017-11-30T11:07:28.913Z,45.10
2017-11-30T11:08:28.927Z,39.50
2017-11-30T11:09:28.950Z,39.50
2017-11-30T11:10:29.029Z,35.50
2017-11-30T11:11:28.976Z,38.30
2017-11-30T11:12:29.001Z,36.90
2017-11-30T11:13:29.016Z,36.30
2017-11-30T11:14:29.040Z,36.00
2017-11-30T11:15:29.040Z,34.40
2017-11-30T11:16:29.057Z,33.60
2017-11-30T11:17:29.072Z,35.70
2017-11-30T11:18:29.089Z,34.70
2017-11-30T11:19:29.106Z,33.60
2017-11-30T11:20:29.121Z,34.80
2017-11-30T11:21:29.140Z,36.10
2017-11-30T11:22:29.154Z,35.30
2017-11-30T11:23:29.173Z,34.20
2017-11-30T11:24:29.187Z,34.30
2017-11-30T11:25:29.231Z,33.70
2017-11-30T11:26:29.223Z,33.80
2017-11-30T11:27:29.239Z,33.10
2017-11-30T11:28:29.252Z,33.90
2017-11-30T11:29:29.268Z,32.00
2017-11-30T11:30:29.284Z,31.50
2017-11-30T11:31:29.301Z,30.90
2017-11-30T11:32:29.319Z,31.80
2017-11-30T11:33:29.336Z,31.60
2017-11-30T11:34:29.351Z,31.60
2017-11-30T11:35:29.366Z,31.60
2017-11-30T11:36:29.384Z,29.60
2017-11-30T11:37:29.401Z,28.60
2017-11-30T11:38:29.416Z,25.60
2017-11-30T11:39:29.432Z,27.00
2017-11-30T11:40:29.449Z,26.60
2017-11-30T11:41:29.472Z,27.30
2017-11-30T11:42:29.481Z,23.50
2017-11-30T11:43:29.599Z,23.00
2017-11-30T11:44:29.514Z,23.50
2017-11-30T11:45:29.530Z,23.80
2017-11-30T11:46:29.546Z,24.60
2017-11-30T11:47:29.563Z,22.50
2017-11-30T11:48:29.580Z,20.60
2017-11-30T11:49:29.598Z,22.00
2017-11-30T11:50:29.612Z,21.10
2017-11-30T11:51:29.627Z,28.40
2017-11-30T11:52:29.649Z,25.60
2017-11-30T11:53:29.662Z,22.00
2017-11-30T11:54:29.678Z,21.20
2017-11-30T11:55:29.694Z,21.50
2017-11-30T11:56:29.711Z,22.80
2017-11-30T11:57:29.725Z,21.60
2017-11-30T11:58:29.754Z,22.50
2017-11-30T11:59:29.762Z,28.00
2017-11-30T12:00:29.832Z,28.50
2017-11-30T12:01:29.792Z,21.40
2017-11-30T12:02:29.809Z,20.60
2017-11-30T12:03:29.825Z,20.20
2017-11-30T12:04:29.849Z,21.80
2017-11-30T12:05:29.858Z,22.20
2017-11-30T12:06:29.875Z,22.10
2017-11-30T12:07:29.890Z,23.90
2017-11-30T12:08:29.909Z,21.10
2017-11-30T12:09:29.925Z,23.10
2017-11-30T12:10:29.942Z,21.00
2017-11-30T12:11:29.958Z,19.60
2017-11-30T12:12:30.002Z,18.80
2017-11-30T12:13:29.991Z,21.10
2017-11-30T12:14:30.007Z,20.30
2017-11-30T12:15:30.025Z,20.20
2017-11-30T12:16:30.041Z,19.90
2017-11-30T12:17:30.073Z,19.30
2017-11-30T12:18:30.174Z,19.90
2017-11-30T12:19:30.090Z,19.30
2017-11-30T12:20:30.107Z,22.50
2017-11-30T12:21:30.122Z,22.90
2017-11-30T12:22:30.141Z,22.20
2017-11-30T12:23:30.157Z,20.10
2017-11-30T12:24:30.211Z,26.10
2017-11-30T12:25:30.192Z,23.00
2017-11-30T12:26:30.206Z,21.80
2017-11-30T12:27:30.223Z,21.20
2017-11-30T12:28:30.249Z,20.30
2017-11-30T12:29:30.257Z,19.20
2017-11-30T12:30:30.275Z,19.20
2017-11-30T12:31:30.290Z,19.40
2017-11-30T12:32:30.308Z,18.30
2017-11-30T12:33:30.327Z,18.80
2017-11-30T12:34:30.343Z,19.20
2017-11-30T12:35:30.358Z,18.50
2017-11-30T12:36:30.376Z,20.00
2017-11-30T12:37:30.390Z,21.10
2017-11-30T12:38:30.407Z,19.40
2017-11-30T12:39:30.425Z,19.10
2017-11-30T12:40:30.441Z,20.50
2017-11-30T12:41:30.459Z,20.00
2017-11-30T12:42:30.474Z,18.00
2017-11-30T12:43:30.492Z,21.20
2017-11-30T12:44:30.511Z,18.00
2017-11-30T12:45:30.526Z,17.40
2017-11-30T12:46:30.541Z,16.00
2017-11-30T12:47:30.559Z,15.70
2017-11-30T12:48:30.576Z,15.40
2017-11-30T12:49:30.593Z,14.00
2017-11-30T12:50:30.609Z,13.50
2017-11-30T12:51:30.625Z,12.80
2017-11-30T12:52:30.642Z,14.60